Velkommen til

Stord Flyklubb

Om oss

Historien til Stord Flyklubb

Klubbens aner strekker seg tilbake til 1969 med sjøfly. Siden har vi sett vanlige motorfly og glidefly, men det er sportsfly som er hovedfokuset i dag

"Me har gjort det som menneskja har drøymd om frå gamalt av, det dei misunner fuglane, det vil seia, me har floge"

Salman Rushdie

Bli pilot

Alle kan lære å fly!

Ta en prøvetur hos oss og se hvor moro det er! Prøveturen gir deg en mulighet til å se om dette er noe du har lyst til å gå videre med.

Teorien tas av de fleste som hjemmeundervisning. Nytt læremateriell gjør opplæringen både enklere og mer strømlinjeformet.

Praksis kan påbegynnes mens man tar teorien, men teorien må være bestått før man kan fly solo. 

METAR Haugesund
ENHD 231150Z AUTO 14007KT 9999 FEW200/// 10/04 Q1002 ENHD 231120Z AUTO 16005KT 9999 FEW200/// 10/03 Q1002 ENHD 231050Z AUTO 17006KT 140V210 9999 FEW200/// 10/01 Q1003 ENHD 231020Z AUTO 15004KT 120V190 9999 BKN042/// 10/02 Q1003 ENHD 230950Z AUTO 18004KT 120V230 9999 OVC043/// 10/03 Q1003 ENHD 230920Z AUTO 14005KT 9999 OVC044/// 10/04 Q1003 TAF ENHD 231100Z 2312/2320 15010KT 9999 FEW030 BKN040 TEMPO 2317/2320 RA BKN012
METAR Flesland
ENBR 231150Z 14006KT 9999 VCSH SCT030 SCT040 08/03 Q1002 NOSIG RMK WIND 1200FT 14013KT ENBR 231120Z 14005KT 9999 VCSH SCT030 SCT040 08/04 Q1002 NOSIG RMK WIND 1200FT 16008KT ENBR 231050Z 13007KT 9999 BKN037 08/04 Q1002 NOSIG RMK WIND 1200FT 22005KT ENBR 231020Z 13005KT 9999 BKN040 08/03 Q1002 NOSIG RMK WIND 1200FT 15006KT ENBR 230950Z 14004KT 120V180 9999 SCT038 SCT042 07/04 Q1002 NOSIG RMK WIND 1200FT 20007KT ENBR 230920Z 13004KT 9999 BKN040 06/04 Q1002 NOSIG RMK WIND 1200FT 21006KT TAF ENBR 2312/2412 13008KT 9999 FEW025 BKN035 BECMG 2319/2321 15015G25KT RA BKN012 TEMPO 2321/2404 4000 RA BKN009 BECMG 2403/2406 21008KT -SHRA FEW015TCU BKN030 BECMG 2409/2412 16018G28KT